createdAt,value
2024-02-22T00:10:20.384Z,3.192
2024-02-22T00:26:02.725Z,3.192
2024-02-22T00:41:45.920Z,3.191
2024-02-22T00:57:28.792Z,3.192
2024-02-22T01:13:11.778Z,3.191
2024-02-22T01:28:53.999Z,3.189
2024-02-22T01:44:36.470Z,3.189
2024-02-22T02:00:19.670Z,3.189
2024-02-22T02:16:02.038Z,3.191
2024-02-22T02:31:44.857Z,3.189
2024-02-22T02:47:28.022Z,3.187
2024-02-22T03:03:10.609Z,3.187
2024-02-22T03:18:53.131Z,3.187
2024-02-22T03:34:36.290Z,3.187
2024-02-22T03:50:19.087Z,3.189
2024-02-22T04:06:01.863Z,3.189
2024-02-22T04:21:44.350Z,3.189
2024-02-22T04:37:27.398Z,3.187
2024-02-22T04:53:09.704Z,3.187
2024-02-22T05:08:52.418Z,3.187
2024-02-22T05:24:35.031Z,3.187
2024-02-22T05:40:17.340Z,3.189
2024-02-22T05:56:00.378Z,3.188
2024-02-22T06:11:43.294Z,3.188
2024-02-22T06:27:25.931Z,3.191
2024-02-22T06:43:08.854Z,3.188
2024-02-22T06:58:51.052Z,3.188
2024-02-22T07:14:33.983Z,3.189
2024-02-22T07:30:16.598Z,3.194
2024-02-22T07:45:58.964Z,3.194
2024-02-22T08:01:41.714Z,3.195
2024-02-22T08:17:24.472Z,3.192
2024-02-22T08:33:07.046Z,3.194
2024-02-22T08:48:49.793Z,3.198
2024-02-22T09:04:32.616Z,3.195
2024-02-22T09:20:15.356Z,3.198
2024-02-22T09:35:58.005Z,3.192
2024-02-22T09:51:40.625Z,3.198
2024-02-22T10:07:23.243Z,3.198
2024-02-22T10:23:05.685Z,3.195
2024-02-22T10:38:48.042Z,3.195
2024-02-22T10:54:30.817Z,3.202
2024-02-22T11:10:13.207Z,3.206
2024-02-22T11:25:56.404Z,3.205
2024-02-22T11:41:38.893Z,3.203
2024-02-22T11:57:21.567Z,3.202
2024-02-22T12:13:04.663Z,3.203
2024-02-22T12:28:47.165Z,3.202
2024-02-22T12:29:34.487Z,3.198
2024-02-22T12:45:16.865Z,3.198
2024-02-22T13:00:59.667Z,3.196
2024-02-22T13:16:42.104Z,3.202
2024-02-22T13:32:24.603Z,3.198
2024-02-22T13:48:07.402Z,3.199
2024-02-22T14:03:50.720Z,3.195
2024-02-22T14:19:33.068Z,3.198
2024-02-22T14:35:16.131Z,3.194
2024-02-22T14:50:58.405Z,3.198
2024-02-22T15:06:40.852Z,3.198
2024-02-22T15:22:23.065Z,3.199
2024-02-22T15:38:05.359Z,3.195
2024-02-22T15:53:48.252Z,3.196
2024-02-22T16:09:30.437Z,3.192
2024-02-22T16:25:13.175Z,3.192
2024-02-22T16:40:55.943Z,3.194
2024-02-22T16:56:38.633Z,3.194
2024-02-22T17:12:21.474Z,3.192
2024-02-22T17:28:03.713Z,3.189
2024-02-22T17:43:46.668Z,3.189
2024-02-22T17:59:28.888Z,3.189
2024-02-22T18:15:11.684Z,3.189
2024-02-22T18:30:54.784Z,3.189
2024-02-22T18:46:37.657Z,3.189
2024-02-22T19:02:20.806Z,3.192
2024-02-22T19:18:03.138Z,3.188
2024-02-22T19:33:46.066Z,3.187
2024-02-22T19:49:29.183Z,3.188
2024-02-22T20:05:11.949Z,3.191
2024-02-22T20:20:54.662Z,3.191
2024-02-22T20:36:37.795Z,3.187
2024-02-22T20:52:20.134Z,3.188
2024-02-22T21:08:03.178Z,3.191
2024-02-22T21:23:45.971Z,3.192
2024-02-22T21:39:28.443Z,3.192
2024-02-22T21:55:11.093Z,3.195
2024-02-22T22:10:53.835Z,3.194
2024-02-22T22:26:36.220Z,3.194
2024-02-22T22:42:18.739Z,3.196
2024-02-22T22:58:01.767Z,3.195
2024-02-22T23:13:44.026Z,3.191
2024-02-22T23:29:27.163Z,3.191
2024-02-22T23:45:09.668Z,3.191
